createdAt,value
2023-01-10T00:01:16.431Z,93879.41
2023-01-10T00:03:17.930Z,93881.72
2023-01-10T00:05:19.603Z,93889.78
2023-01-10T00:07:21.111Z,93869.50
2023-01-10T00:09:24.822Z,93858.59
2023-01-10T00:11:45.042Z,93878.50
2023-01-10T00:13:46.627Z,93867.00
2023-01-10T00:15:48.416Z,93873.81
2023-01-10T00:17:50.166Z,93872.84
2023-01-10T00:19:51.736Z,93846.81
2023-01-10T00:21:53.499Z,93857.88
2023-01-10T00:23:54.983Z,93858.50
2023-01-10T00:25:56.729Z,93845.41
2023-01-10T00:28:11.293Z,93846.66
2023-01-10T00:30:15.734Z,93865.06
2023-01-10T00:32:17.292Z,93843.22
2023-01-10T00:34:18.822Z,93861.75
2023-01-10T00:36:20.381Z,93862.81
2023-01-10T00:38:21.965Z,93848.81
2023-01-10T00:40:24.006Z,93847.72
2023-01-10T00:42:44.151Z,93813.16
2023-01-10T00:44:47.192Z,93821.78
2023-01-10T00:46:48.714Z,93768.97
2023-01-10T00:48:50.256Z,93810.72
2023-01-10T00:50:51.945Z,93832.66
2023-01-10T00:52:53.445Z,93821.59
2023-01-10T00:54:55.022Z,93831.09
2023-01-10T00:56:56.880Z,93826.41
2023-01-10T00:58:58.415Z,93840.59
2023-01-10T01:01:01.816Z,93834.00
2023-01-10T01:03:04.681Z,93810.91
2023-01-10T01:05:06.533Z,93805.97
2023-01-10T01:07:08.703Z,93807.59
2023-01-10T01:09:10.274Z,93798.19
2023-01-10T01:11:11.835Z,93824.78
2023-01-10T01:13:17.303Z,93818.78
2023-01-10T01:15:18.834Z,93808.81
2023-01-10T01:17:20.290Z,93822.75
2023-01-10T01:19:21.831Z,93816.59
2023-01-10T01:21:28.159Z,93819.88
2023-01-10T01:23:30.131Z,93799.59
2023-01-10T01:25:31.723Z,93811.41
2023-01-10T01:27:34.970Z,93829.38
2023-01-10T01:29:42.999Z,93807.31
2023-01-10T01:31:45.180Z,93812.94
2023-01-10T01:33:47.161Z,93829.53
2023-01-10T01:35:49.125Z,93821.72
2023-01-10T01:37:50.972Z,93810.53
2023-01-10T01:39:52.531Z,93785.63
2023-01-10T01:42:00.544Z,93811.66
2023-01-10T01:44:06.486Z,93793.09
2023-01-10T01:46:08.112Z,93785.94
2023-01-10T01:48:13.201Z,93801.47
2023-01-10T01:50:15.567Z,93792.84
2023-01-10T01:52:27.607Z,93801.91
2023-01-10T01:54:29.447Z,93776.81
2023-01-10T01:56:33.354Z,93801.03
2023-01-10T01:58:52.131Z,93801.00
2023-01-10T02:00:53.833Z,93779.94
2023-01-10T02:03:02.657Z,93760.34
2023-01-10T02:05:09.097Z,93763.72
2023-01-10T02:07:10.810Z,93731.41
2023-01-10T02:09:14.944Z,93761.16
2023-01-10T02:11:16.530Z,93765.44
2023-01-10T02:13:18.737Z,93770.84
2023-01-10T02:15:20.467Z,93770.75
2023-01-10T02:17:21.990Z,93784.25
2023-01-10T02:19:45.235Z,93745.91
2023-01-10T02:22:09.995Z,93742.19
2023-01-10T02:24:22.242Z,93749.19
2023-01-10T02:26:38.576Z,93729.47
2023-01-10T02:28:51.087Z,93745.50
2023-01-10T02:30:57.450Z,93744.22
2023-01-10T02:33:16.786Z,93734.31
2023-01-10T02:35:24.517Z,93746.63
2023-01-10T02:37:28.487Z,93755.59
2023-01-10T02:39:31.292Z,93746.69
2023-01-10T02:41:38.261Z,93732.88
2023-01-10T02:43:41.576Z,93746.06
2023-01-10T02:45:51.575Z,93727.22
2023-01-10T02:47:53.033Z,93735.91
2023-01-10T02:49:54.494Z,93739.97
2023-01-10T02:51:56.334Z,93735.56
2023-01-10T02:53:57.797Z,93741.63
2023-01-10T02:55:59.261Z,93747.66
2023-01-10T02:58:30.516Z,93761.19
2023-01-10T03:00:45.668Z,93755.44
2023-01-10T03:03:07.444Z,93755.16
2023-01-10T03:05:15.013Z,93764.94
2023-01-10T03:07:37.921Z,93756.97
2023-01-10T03:09:39.453Z,93773.59
2023-01-10T03:11:41.192Z,93763.91
2023-01-10T03:13:42.746Z,93755.22
2023-01-10T03:15:44.833Z,93771.81
2023-01-10T03:17:46.863Z,93765.50
2023-01-10T03:19:50.101Z,93761.13
2023-01-10T03:21:53.036Z,93759.66
2023-01-10T03:23:55.098Z,93779.81
2023-01-10T03:25:56.702Z,93776.66
2023-01-10T03:28:08.688Z,93782.09
2023-01-10T03:30:16.462Z,93767.34
2023-01-10T03:32:20.378Z,93758.56
2023-01-10T03:34:21.917Z,93767.69
2023-01-10T03:36:31.264Z,93756.59
2023-01-10T03:38:42.581Z,93748.50
2023-01-10T03:40:48.472Z,93749.78
2023-01-10T03:43:16.164Z,93742.22
2023-01-10T03:45:17.662Z,93749.16
2023-01-10T03:47:19.259Z,93756.94
2023-01-10T03:49:20.886Z,93762.53
2023-01-10T03:51:22.752Z,93749.44
2023-01-10T03:53:24.215Z,93756.41
2023-01-10T03:55:27.328Z,93736.59
2023-01-10T03:57:28.892Z,93710.50
2023-01-10T03:59:30.697Z,93716.66
2023-01-10T04:01:32.347Z,93700.06
2023-01-10T04:03:34.219Z,93682.34
2023-01-10T04:05:35.935Z,93683.63
2023-01-10T04:07:37.493Z,93678.22
2023-01-10T04:09:39.049Z,93654.94
2023-01-10T04:11:40.670Z,93670.97
2023-01-10T04:13:42.993Z,93670.63
2023-01-10T04:15:44.474Z,93668.84
2023-01-10T04:17:46.744Z,93665.91
2023-01-10T04:19:48.565Z,93668.34
2023-01-10T04:21:50.206Z,93688.81
2023-01-10T04:23:51.672Z,93705.44
2023-01-10T04:25:53.229Z,93723.50
2023-01-10T04:27:54.719Z,93724.84
2023-01-10T04:29:56.233Z,93727.13
2023-01-10T04:31:57.756Z,93760.53
2023-01-10T04:33:59.415Z,93753.31
2023-01-10T04:36:01.011Z,93767.72
2023-01-10T04:38:02.594Z,93779.28
2023-01-10T04:40:04.521Z,93756.50
2023-01-10T04:42:06.052Z,93762.97
2023-01-10T04:44:07.699Z,93753.56
2023-01-10T04:46:09.281Z,93743.69
2023-01-10T04:48:10.898Z,93730.28
2023-01-10T04:50:12.422Z,93719.28
2023-01-10T04:52:14.033Z,93713.34
2023-01-10T04:54:15.668Z,93735.44
2023-01-10T04:56:18.477Z,93740.69
2023-01-10T04:58:20.031Z,93746.44
2023-01-10T05:00:21.535Z,93724.53
2023-01-10T05:02:23.124Z,93727.25
2023-01-10T05:04:24.991Z,93716.22
2023-01-10T05:06:26.589Z,93727.59
2023-01-10T05:08:28.215Z,93737.00
2023-01-10T05:10:29.852Z,93728.84
2023-01-10T05:12:31.426Z,93705.75
2023-01-10T05:14:33.043Z,93718.38
2023-01-10T05:16:35.525Z,93711.72
2023-01-10T05:18:37.041Z,93686.03
2023-01-10T05:20:38.531Z,93693.94
2023-01-10T05:22:40.095Z,93684.28
2023-01-10T05:24:41.762Z,93691.94
2023-01-10T05:26:43.205Z,93692.59
2023-01-10T05:28:44.982Z,93695.09
2023-01-10T05:30:46.439Z,93690.88
2023-01-10T05:32:47.997Z,93693.94
2023-01-10T05:34:50.003Z,93698.75
2023-01-10T05:36:51.562Z,93720.16
2023-01-10T05:38:53.072Z,93719.28
2023-01-10T05:40:55.843Z,93726.19
2023-01-10T05:42:57.408Z,93735.00
2023-01-10T05:44:59.015Z,93745.59
2023-01-10T05:47:00.548Z,93728.91
2023-01-10T05:49:02.034Z,93724.22
2023-01-10T05:51:03.912Z,93715.81
2023-01-10T05:53:06.140Z,93718.13
2023-01-10T05:55:07.790Z,93703.34
2023-01-10T05:57:09.268Z,93707.75
2023-01-10T05:59:23.752Z,93726.56
2023-01-10T06:01:29.339Z,93720.56
2023-01-10T06:03:30.940Z,93727.63
2023-01-10T06:05:32.407Z,93725.53
2023-01-10T06:07:34.086Z,93714.56
2023-01-10T06:09:35.667Z,93704.50
2023-01-10T06:11:38.976Z,93707.94
2023-01-10T06:13:40.535Z,93719.66
2023-01-10T06:15:42.265Z,93724.53
2023-01-10T06:17:44.434Z,93721.47
2023-01-10T06:19:45.976Z,93715.81
2023-01-10T06:21:47.503Z,93717.59
2023-01-10T06:23:49.031Z,93722.81
2023-01-10T06:25:50.589Z,93724.94
2023-01-10T06:27:52.154Z,93726.59
2023-01-10T06:29:53.724Z,93725.47
2023-01-10T06:31:55.221Z,93720.13
2023-01-10T06:33:56.712Z,93716.19
2023-01-10T06:35:58.224Z,93712.59
2023-01-10T06:37:59.721Z,93712.94
2023-01-10T06:40:01.284Z,93720.56
2023-01-10T06:42:02.844Z,93725.75
2023-01-10T06:44:04.375Z,93716.84
2023-01-10T06:46:06.139Z,93718.31
2023-01-10T06:48:07.769Z,93723.19
2023-01-10T06:50:09.731Z,93726.59
2023-01-10T06:52:11.372Z,93716.72
2023-01-10T06:54:13.130Z,93719.19
2023-01-10T06:56:14.673Z,93716.59
2023-01-10T06:58:18.536Z,93721.47
2023-01-10T07:00:20.410Z,93704.72
2023-01-10T07:02:22.105Z,93708.31
2023-01-10T07:04:23.697Z,93708.47
2023-01-10T07:06:25.277Z,93703.81
2023-01-10T07:08:26.812Z,93705.78
2023-01-10T07:10:28.456Z,93696.06
2023-01-10T07:12:30.106Z,93694.78
2023-01-10T07:14:31.733Z,93691.69
2023-01-10T07:16:33.407Z,93693.03
2023-01-10T07:18:35.475Z,93684.22
2023-01-10T07:20:37.025Z,93678.38
2023-01-10T07:22:40.622Z,93683.56
2023-01-10T07:24:42.163Z,93684.09
2023-01-10T07:26:43.637Z,93688.97
2023-01-10T07:28:45.684Z,93695.31
2023-01-10T07:30:47.322Z,93681.34
2023-01-10T07:32:55.568Z,93683.47
2023-01-10T07:34:57.137Z,93677.38
2023-01-10T07:36:58.696Z,93675.06
2023-01-10T07:39:00.173Z,93673.88
2023-01-10T07:41:02.754Z,93667.84
2023-01-10T07:43:04.405Z,93670.94
2023-01-10T07:45:07.412Z,93673.53
2023-01-10T07:47:08.984Z,93666.53
2023-01-10T07:49:10.648Z,93671.72
2023-01-10T07:51:12.150Z,93672.63
2023-01-10T07:53:13.760Z,93669.03
2023-01-10T07:55:15.419Z,93667.53
2023-01-10T07:57:17.361Z,93672.81
2023-01-10T07:59:18.928Z,93661.59
2023-01-10T08:01:20.656Z,93671.66
2023-01-10T08:03:24.888Z,93674.59
2023-01-10T08:05:26.735Z,93674.75
2023-01-10T08:07:31.196Z,93678.66
2023-01-10T08:09:32.751Z,93669.69
2023-01-10T08:11:34.481Z,93667.94
2023-01-10T08:13:36.075Z,93670.88
2023-01-10T08:15:39.984Z,93665.34
2023-01-10T08:17:41.574Z,93670.19
2023-01-10T08:19:43.039Z,93670.59
2023-01-10T08:21:44.549Z,93661.72
2023-01-10T08:23:46.059Z,93659.31
2023-01-10T08:25:47.891Z,93650.91
2023-01-10T08:27:49.465Z,93651.75
2023-01-10T08:29:51.256Z,93637.84
2023-01-10T08:31:53.065Z,93640.13
2023-01-10T08:33:54.646Z,93627.81
2023-01-10T08:35:56.145Z,93642.22
2023-01-10T08:38:00.795Z,93632.78
2023-01-10T08:40:02.498Z,93635.31
2023-01-10T08:42:04.130Z,93627.00
2023-01-10T08:44:06.023Z,93626.38
2023-01-10T08:46:07.564Z,93631.09
2023-01-10T08:48:10.235Z,93637.44
2023-01-10T08:50:11.724Z,93632.91
2023-01-10T08:52:13.398Z,93629.97
2023-01-10T08:54:15.020Z,93625.22
2023-01-10T08:56:16.543Z,93633.19
2023-01-10T08:58:18.068Z,93634.13
2023-01-10T09:00:19.826Z,93627.94
2023-01-10T09:02:21.398Z,93630.69
2023-01-10T09:04:22.932Z,93621.88
2023-01-10T09:06:24.484Z,93618.69
2023-01-10T09:08:26.123Z,93617.03
2023-01-10T09:10:30.957Z,93605.50
2023-01-10T09:12:51.094Z,93614.09
2023-01-10T09:14:52.582Z,93614.25
2023-01-10T09:16:54.132Z,93616.69
2023-01-10T09:18:56.327Z,93616.50
2023-01-10T09:20:57.834Z,93606.25
2023-01-10T09:23:00.957Z,93608.25
2023-01-10T09:25:02.579Z,93613.28
2023-01-10T09:27:04.138Z,93614.72
2023-01-10T09:29:05.642Z,93612.78
2023-01-10T09:31:08.837Z,93610.84
2023-01-10T09:33:10.790Z,93610.53
2023-01-10T09:35:12.267Z,93602.44
2023-01-10T09:37:13.774Z,93602.56
2023-01-10T09:39:15.257Z,93589.09
2023-01-10T09:41:25.762Z,93593.63
2023-01-10T09:43:42.388Z,93583.91
2023-01-10T09:45:46.903Z,93573.72
2023-01-10T09:47:54.348Z,93575.03
2023-01-10T09:50:17.958Z,93571.94
2023-01-10T09:52:23.620Z,93566.28
2023-01-10T09:54:43.521Z,93579.50
2023-01-10T09:56:53.615Z,93573.09
2023-01-10T09:58:55.198Z,93567.91
2023-01-10T10:00:57.522Z,93559.78
2023-01-10T10:02:59.099Z,93559.31
2023-01-10T10:05:05.012Z,93556.91
2023-01-10T10:07:08.691Z,93554.50
2023-01-10T10:09:13.896Z,93551.91
2023-01-10T10:11:27.856Z,93552.69
2023-01-10T10:13:32.368Z,93562.28
2023-01-10T10:15:37.876Z,93561.09
2023-01-10T10:17:42.419Z,93555.09
2023-01-10T10:19:53.396Z,93554.78
2023-01-10T10:22:04.171Z,93555.44
2023-01-10T10:24:21.065Z,93553.53
2023-01-10T10:26:35.959Z,93549.81
2023-01-10T10:28:54.546Z,93554.69
2023-01-10T10:30:56.793Z,93547.91
2023-01-10T10:33:05.033Z,93536.22
2023-01-10T10:35:26.469Z,93529.09
2023-01-10T10:37:33.579Z,93527.44
2023-01-10T10:39:38.793Z,93532.34
2023-01-10T10:41:44.225Z,93534.28
2023-01-10T10:43:45.950Z,93528.06
2023-01-10T10:45:48.615Z,93528.34
2023-01-10T10:47:53.660Z,93517.63
2023-01-10T10:50:07.357Z,93519.84
2023-01-10T10:52:17.936Z,93518.69
2023-01-10T10:54:19.578Z,93514.03
2023-01-10T10:56:21.845Z,93514.31
2023-01-10T10:58:23.423Z,93517.25
2023-01-10T11:00:25.359Z,93523.75
2023-01-10T11:02:30.751Z,93527.53
2023-01-10T11:04:32.877Z,93519.63
2023-01-10T11:06:34.635Z,93524.47
2023-01-10T11:08:36.470Z,93521.25
2023-01-10T11:10:39.345Z,93505.78
2023-01-10T11:12:43.043Z,93509.22
2023-01-10T11:14:46.897Z,93505.81
2023-01-10T11:16:48.530Z,93494.03
2023-01-10T11:18:57.789Z,93488.97
2023-01-10T11:21:00.313Z,93491.13
2023-01-10T11:23:01.876Z,93497.09
2023-01-10T11:25:03.487Z,93494.03
2023-01-10T11:27:13.710Z,93499.56
2023-01-10T11:29:18.177Z,93497.72
2023-01-10T11:31:26.766Z,93495.81
2023-01-10T11:33:30.337Z,93503.63
2023-01-10T11:35:36.831Z,93494.91
2023-01-10T11:37:39.696Z,93485.28
2023-01-10T11:39:41.188Z,93484.28
2023-01-10T11:41:42.703Z,93485.25
2023-01-10T11:43:44.250Z,93493.53
2023-01-10T11:45:45.889Z,93487.56
2023-01-10T11:47:54.883Z,93488.53
2023-01-10T11:49:56.454Z,93477.94
2023-01-10T11:51:59.276Z,93482.69
2023-01-10T11:54:07.920Z,93477.53
2023-01-10T11:56:13.808Z,93489.09
2023-01-10T11:58:15.429Z,93480.66
2023-01-10T12:00:17.081Z,93481.81
2023-01-10T12:02:21.504Z,93477.47
2023-01-10T12:04:23.152Z,93479.63
2023-01-10T12:06:24.681Z,93478.13
2023-01-10T12:08:27.382Z,93470.09
2023-01-10T12:10:29.122Z,93488.50
2023-01-10T12:12:31.361Z,93483.16
2023-01-10T12:14:32.970Z,93477.63
2023-01-10T12:16:34.780Z,93482.41
2023-01-10T12:18:36.285Z,93479.16
2023-01-10T12:20:47.694Z,93479.81
2023-01-10T12:22:53.315Z,93478.59
2023-01-10T12:24:54.868Z,93479.78
2023-01-10T12:26:56.427Z,93485.97
2023-01-10T12:28:58.889Z,93488.41
2023-01-10T12:31:00.538Z,93498.31
2023-01-10T12:33:10.320Z,93494.78
2023-01-10T12:35:19.061Z,93493.81
2023-01-10T12:37:32.538Z,93486.84
2023-01-10T12:39:37.582Z,93483.44
2023-01-10T12:42:02.324Z,93474.50
2023-01-10T12:44:13.128Z,93470.31
2023-01-10T12:46:35.971Z,93461.72
2023-01-10T12:48:44.259Z,93451.66
2023-01-10T12:50:47.127Z,93458.97
2023-01-10T12:52:49.540Z,93471.97
2023-01-10T12:54:51.165Z,93479.78
2023-01-10T12:56:52.828Z,93486.94
2023-01-10T12:58:55.566Z,93480.59
2023-01-10T13:00:58.359Z,93484.66
2023-01-10T13:03:00.845Z,93488.41
2023-01-10T13:05:02.477Z,93486.28
2023-01-10T13:07:04.329Z,93483.34
2023-01-10T13:09:07.294Z,93493.13
2023-01-10T13:11:08.785Z,93492.47
2023-01-10T13:13:15.675Z,93489.84
2023-01-10T13:15:20.005Z,93485.16
2023-01-10T13:17:26.340Z,93484.97
2023-01-10T13:19:28.275Z,93482.88
2023-01-10T13:21:30.338Z,93488.72
2023-01-10T13:23:33.542Z,93492.78
2023-01-10T13:25:36.057Z,93492.78
2023-01-10T13:27:37.556Z,93499.63
2023-01-10T13:29:41.219Z,93498.97
2023-01-10T13:31:42.817Z,93498.47
2023-01-10T13:33:47.525Z,93498.97
2023-01-10T13:35:49.299Z,93495.88
2023-01-10T13:37:51.735Z,93494.06
2023-01-10T13:39:54.273Z,93504.97
2023-01-10T13:42:17.668Z,93494.44
2023-01-10T13:44:19.186Z,93498.47
2023-01-10T13:46:20.797Z,93494.56
2023-01-10T13:48:28.330Z,93505.94
2023-01-10T13:50:34.066Z,93497.19
2023-01-10T13:52:35.706Z,93498.78
2023-01-10T13:54:37.538Z,93507.09
2023-01-10T13:56:40.765Z,93501.88
2023-01-10T13:59:01.102Z,93504.81
2023-01-10T14:01:21.131Z,93505.13
2023-01-10T14:03:41.719Z,93495.72
2023-01-10T14:05:47.734Z,93500.56
2023-01-10T14:07:50.225Z,93501.88
2023-01-10T14:09:52.113Z,93507.56
2023-01-10T14:11:55.978Z,93507.72
2023-01-10T14:13:59.144Z,93512.75
2023-01-10T14:16:00.748Z,93509.81
2023-01-10T14:18:03.545Z,93503.81
2023-01-10T14:20:16.124Z,93508.03
2023-01-10T14:22:25.569Z,93506.69
2023-01-10T14:24:27.117Z,93510.31
2023-01-10T14:26:35.955Z,93513.41
2023-01-10T14:28:37.548Z,93520.06
2023-01-10T14:30:40.355Z,93524.47
2023-01-10T14:32:43.747Z,93518.59
2023-01-10T14:34:46.639Z,93520.41
2023-01-10T14:36:57.220Z,93510.63
2023-01-10T14:38:59.344Z,93510.47
2023-01-10T14:41:02.117Z,93514.50
2023-01-10T14:43:04.721Z,93511.44
2023-01-10T14:45:13.897Z,93518.88
2023-01-10T14:47:27.767Z,93522.28
2023-01-10T14:49:49.039Z,93522.94
2023-01-10T14:51:50.920Z,93537.03
2023-01-10T14:54:00.056Z,93537.03
2023-01-10T14:56:01.705Z,93542.72
2023-01-10T14:58:03.308Z,93546.25
2023-01-10T15:00:17.613Z,93550.97
2023-01-10T15:02:23.472Z,93548.06
2023-01-10T15:04:28.764Z,93561.53
2023-01-10T15:06:30.405Z,93562.28
2023-01-10T15:08:32.242Z,93558.88
2023-01-10T15:10:35.689Z,93575.75
2023-01-10T15:12:37.257Z,93575.75
2023-01-10T15:14:38.791Z,93570.22
2023-01-10T15:16:40.292Z,93570.22
2023-01-10T15:18:43.476Z,93570.38
2023-01-10T15:20:45.098Z,93576.88
2023-01-10T15:22:48.983Z,93578.06
2023-01-10T15:25:00.376Z,93581.41
2023-01-10T15:27:05.107Z,93591.47
2023-01-10T15:29:11.295Z,93600.53
2023-01-10T15:31:17.107Z,93597.75
2023-01-10T15:33:20.160Z,93603.81
2023-01-10T15:35:35.255Z,93614.00
2023-01-10T15:37:39.309Z,93611.22
2023-01-10T15:39:40.826Z,93615.34
2023-01-10T15:41:42.406Z,93616.59
2023-01-10T15:43:44.018Z,93620.53
2023-01-10T15:45:46.283Z,93627.28
2023-01-10T15:47:52.839Z,93641.06
2023-01-10T15:49:54.607Z,93637.00
2023-01-10T15:51:57.637Z,93649.97
2023-01-10T15:54:06.344Z,93650.25
2023-01-10T15:56:09.440Z,93648.94
2023-01-10T15:58:17.105Z,93649.47
2023-01-10T16:00:19.129Z,93661.19
2023-01-10T16:02:24.954Z,93655.59
2023-01-10T16:04:26.623Z,93671.75
2023-01-10T16:06:31.244Z,93674.81
2023-01-10T16:08:33.182Z,93683.03
2023-01-10T16:10:37.127Z,93688.44
2023-01-10T16:12:58.194Z,93694.28
2023-01-10T16:14:59.686Z,93690.59
2023-01-10T16:17:01.551Z,93687.78
2023-01-10T16:19:03.292Z,93691.22
2023-01-10T16:21:05.001Z,93691.03
2023-01-10T16:23:09.021Z,93697.19
2023-01-10T16:25:14.212Z,93701.13
2023-01-10T16:27:15.707Z,93703.47
2023-01-10T16:29:17.597Z,93703.09
2023-01-10T16:31:19.147Z,93705.03
2023-01-10T16:33:24.660Z,93711.00
2023-01-10T16:35:26.379Z,93714.16
2023-01-10T16:37:27.874Z,93714.16
2023-01-10T16:39:29.381Z,93715.66
2023-01-10T16:41:49.551Z,93719.06
2023-01-10T16:43:51.876Z,93723.47
2023-01-10T16:45:55.090Z,93722.91
2023-01-10T16:47:56.624Z,93733.00
2023-01-10T16:49:58.184Z,93724.16
2023-01-10T16:52:01.012Z,93731.38
2023-01-10T16:54:02.529Z,93728.38
2023-01-10T16:56:04.121Z,93727.69
2023-01-10T16:58:05.803Z,93728.22
2023-01-10T17:00:07.713Z,93727.81
2023-01-10T17:02:16.292Z,93730.81
2023-01-10T17:04:21.853Z,93733.13
2023-01-10T17:06:23.446Z,93730.94
2023-01-10T17:08:25.059Z,93735.16
2023-01-10T17:10:26.606Z,93739.53
2023-01-10T17:12:32.261Z,93738.44
2023-01-10T17:14:34.789Z,93745.38
2023-01-10T17:16:36.303Z,93746.88
2023-01-10T17:18:39.413Z,93742.94
2023-01-10T17:20:41.132Z,93751.13
2023-01-10T17:22:42.586Z,93751.25
2023-01-10T17:24:44.118Z,93756.97
2023-01-10T17:26:45.892Z,93758.19
2023-01-10T17:28:49.630Z,93761.06
2023-01-10T17:30:51.577Z,93757.78
2023-01-10T17:32:53.169Z,93761.72
2023-01-10T17:34:54.873Z,93768.69
2023-01-10T17:36:56.325Z,93775.91
2023-01-10T17:38:57.860Z,93767.03
2023-01-10T17:41:03.134Z,93769.22
2023-01-10T17:43:04.778Z,93768.69
2023-01-10T17:45:06.547Z,93771.69
2023-01-10T17:47:08.118Z,93780.00
2023-01-10T17:49:10.827Z,93783.94
2023-01-10T17:51:13.576Z,93787.34
2023-01-10T17:53:15.747Z,93790.09
2023-01-10T17:55:17.327Z,93786.28
2023-01-10T17:57:18.896Z,93787.50
2023-01-10T17:59:21.808Z,93788.56
2023-01-10T18:01:25.440Z,93783.94
2023-01-10T18:03:27.139Z,93784.91
2023-01-10T18:05:28.584Z,93787.63
2023-01-10T18:07:30.274Z,93794.03
2023-01-10T18:09:31.713Z,93793.34
2023-01-10T18:11:33.803Z,93795.00
2023-01-10T18:13:35.320Z,93795.94
2023-01-10T18:15:39.871Z,93791.97
2023-01-10T18:17:41.369Z,93791.84
2023-01-10T18:19:43.881Z,93790.75
2023-01-10T18:21:45.401Z,93790.38
2023-01-10T18:23:47.857Z,93795.66
2023-01-10T18:25:57.315Z,93792.94
2023-01-10T18:28:00.280Z,93798.81
2023-01-10T18:30:02.010Z,93802.34
2023-01-10T18:32:03.487Z,93798.78
2023-01-10T18:34:04.938Z,93789.41
2023-01-10T18:36:07.008Z,93798.91
2023-01-10T18:38:08.508Z,93791.84
2023-01-10T18:40:10.321Z,93787.09
2023-01-10T18:42:11.886Z,93805.63
2023-01-10T18:44:13.359Z,93804.66
2023-01-10T18:46:19.639Z,93807.66
2023-01-10T18:48:24.366Z,93806.97
2023-01-10T18:50:27.559Z,93806.16
2023-01-10T18:52:29.030Z,93808.19
2023-01-10T18:54:31.858Z,93807.66
2023-01-10T18:56:34.209Z,93811.72
2023-01-10T18:58:36.901Z,93813.34
2023-01-10T19:00:38.364Z,93826.69
2023-01-10T19:02:40.025Z,93821.53
2023-01-10T19:04:41.747Z,93815.41
2023-01-10T19:06:44.389Z,93821.16
2023-01-10T19:08:46.612Z,93812.94
2023-01-10T19:11:11.826Z,93818.94
2023-01-10T19:13:09.696Z,93815.28
2023-01-10T19:15:11.470Z,93816.66
2023-01-10T19:17:13.027Z,93815.56
2023-01-10T19:19:14.638Z,93802.22
2023-01-10T19:21:16.353Z,93808.88
2023-01-10T19:23:17.857Z,93805.75
2023-01-10T19:25:19.350Z,93822.78
2023-01-10T19:27:20.975Z,93830.56
2023-01-10T19:29:22.763Z,93837.63
2023-01-10T19:31:25.952Z,93829.28
2023-01-10T19:33:27.595Z,93830.41
2023-01-10T19:35:34.431Z,93827.53
2023-01-10T19:37:35.915Z,93843.34
2023-01-10T19:39:37.878Z,93844.72
2023-01-10T19:41:39.560Z,93854.91
2023-01-10T19:43:41.101Z,93859.81
2023-01-10T19:45:42.626Z,93864.06
2023-01-10T19:47:45.373Z,93851.25
2023-01-10T19:49:46.912Z,93856.28
2023-01-10T19:51:51.144Z,93865.16
2023-01-10T19:53:53.072Z,93859.41
2023-01-10T19:56:02.192Z,93862.31
2023-01-10T19:58:03.811Z,93850.56
2023-01-10T20:00:05.714Z,93857.66
2023-01-10T20:02:08.016Z,93859.69
2023-01-10T20:04:09.894Z,93862.69
2023-01-10T20:06:14.274Z,93868.28
2023-01-10T20:08:15.947Z,93872.53
2023-01-10T20:10:17.626Z,93863.91
2023-01-10T20:12:19.176Z,93867.06
2023-01-10T20:14:21.168Z,93868.03
2023-01-10T20:16:23.251Z,93866.13
2023-01-10T20:18:24.725Z,93866.13
2023-01-10T20:20:26.256Z,93866.38
2023-01-10T20:22:28.100Z,93871.44
2023-01-10T20:24:29.576Z,93870.06
2023-01-10T20:26:31.133Z,93866.50
2023-01-10T20:28:33.379Z,93857.38
2023-01-10T20:30:36.436Z,93863.25
2023-01-10T20:32:37.970Z,93864.06
2023-01-10T20:34:39.670Z,93867.59
2023-01-10T20:36:41.224Z,93866.91
2023-01-10T20:38:42.809Z,93866.78
2023-01-10T20:40:44.294Z,93874.13
2023-01-10T20:42:49.288Z,93875.75
2023-01-10T20:44:50.819Z,93875.06
2023-01-10T20:46:52.839Z,93877.16
2023-01-10T20:48:55.339Z,93880.69
2023-01-10T20:50:56.891Z,93885.06
2023-01-10T20:52:58.418Z,93887.63
2023-01-10T20:54:59.890Z,93889.78
2023-01-10T20:57:01.398Z,93897.97
2023-01-10T20:59:03.320Z,93897.97
2023-01-10T21:01:04.862Z,93901.94
2023-01-10T21:03:06.641Z,93905.50
2023-01-10T21:05:08.539Z,93906.16
2023-01-10T21:07:10.115Z,93912.03
2023-01-10T21:09:16.511Z,93912.31
2023-01-10T21:11:18.491Z,93921.56
2023-01-10T21:13:19.987Z,93921.00
2023-01-10T21:15:21.513Z,93917.19
2023-01-10T21:17:23.084Z,93918.28
2023-01-10T21:19:24.586Z,93921.97
2023-01-10T21:21:26.076Z,93928.38
2023-01-10T21:23:27.988Z,93932.19
2023-01-10T21:25:29.461Z,93931.78
2023-01-10T21:27:31.464Z,93935.19
2023-01-10T21:29:33.058Z,93943.09
2023-01-10T21:31:34.656Z,93940.91
2023-01-10T21:33:37.011Z,93942.28
2023-01-10T21:35:38.578Z,93945.56
2023-01-10T21:37:40.187Z,93955.91
2023-01-10T21:39:41.820Z,93956.72
2023-01-10T21:42:01.792Z,93955.53
2023-01-10T21:44:03.891Z,93962.75
2023-01-10T21:46:05.629Z,93969.84
2023-01-10T21:48:07.157Z,93975.72
2023-01-10T21:50:11.210Z,93970.09
2023-01-10T21:52:12.729Z,93968.63
2023-01-10T21:54:14.293Z,93971.34
2023-01-10T21:56:15.805Z,93975.16
2023-01-10T21:58:17.409Z,93973.94
2023-01-10T22:00:19.322Z,93975.03
2023-01-10T22:02:21.359Z,93973.94
2023-01-10T22:04:23.899Z,93972.56
2023-01-10T22:06:25.503Z,93971.34
2023-01-10T22:08:27.093Z,93980.91
2023-01-10T22:10:28.593Z,93979.00
2023-01-10T22:12:30.806Z,93992.38
2023-01-10T22:14:32.363Z,93983.50
2023-01-10T22:16:33.937Z,93992.50
2023-01-10T22:18:35.583Z,93987.19
2023-01-10T22:20:37.060Z,93991.00
2023-01-10T22:22:38.655Z,93989.78
2023-01-10T22:24:43.656Z,93989.22
2023-01-10T22:26:45.890Z,93986.50
2023-01-10T22:28:47.384Z,93990.59
2023-01-10T22:30:48.878Z,93988.53
2023-01-10T22:32:54.393Z,93997.94
2023-01-10T22:34:55.999Z,94003.94
2023-01-10T22:36:57.443Z,93990.59
2023-01-10T22:38:58.918Z,93991.25
2023-01-10T22:41:07.000Z,93990.72
2023-01-10T22:43:08.479Z,93994.94
2023-01-10T22:45:10.350Z,93999.75
2023-01-10T22:47:12.018Z,94000.13
2023-01-10T22:49:14.690Z,93994.25
2023-01-10T22:51:19.169Z,93995.78
2023-01-10T22:53:20.680Z,94002.72
2023-01-10T22:55:22.118Z,93996.03
2023-01-10T22:57:23.586Z,93994.41
2023-01-10T22:59:25.068Z,93987.31
2023-01-10T23:01:26.607Z,93993.88
2023-01-10T23:03:28.061Z,93987.59
2023-01-10T23:05:29.539Z,93990.19
2023-01-10T23:07:31.044Z,93994.81
2023-01-10T23:09:32.530Z,93991.81
2023-01-10T23:11:34.213Z,93989.22
2023-01-10T23:13:35.883Z,93988.00
2023-01-10T23:15:37.353Z,93984.72
2023-01-10T23:17:38.828Z,93990.84
2023-01-10T23:19:40.414Z,93989.22
2023-01-10T23:21:42.129Z,93987.59
2023-01-10T23:23:43.698Z,93989.78
2023-01-10T23:25:45.302Z,93991.13
2023-01-10T23:27:46.858Z,93993.59
2023-01-10T23:29:48.423Z,93997.66
2023-01-10T23:31:50.073Z,93992.06
2023-01-10T23:33:51.774Z,94002.31
2023-01-10T23:35:53.237Z,93998.38
2023-01-10T23:37:54.787Z,94009.41
2023-01-10T23:39:56.319Z,94009.00
2023-01-10T23:41:57.790Z,94009.41
2023-01-10T23:43:59.340Z,94019.63
2023-01-10T23:46:02.336Z,94007.50
2023-01-10T23:48:04.453Z,94014.34
2023-01-10T23:50:06.083Z,94009.41
2023-01-10T23:52:07.639Z,94006.56
2023-01-10T23:54:09.230Z,94012.97
2023-01-10T23:56:12.132Z,94020.47
2023-01-10T23:58:13.955Z,94026.31
